Time;durP1;ratioP1;P1;durP2;ratioP2;P2;SDS_P1;SDS_P2;PMS_P1;PMS_P2;Temp;Humidity;BMP_temperature;BMP_pressure;BME280_temperature;BME280_humidity;BME280_pressure;Samples;Min_cycle;Max_cycle;Signal;HPM_P1;HPM_P2
2022/03/24 00:00:01;;;;;;;60.08;41.53;;;;;;;;;;4984532;28;20511;-84
2022/03/24 00:02:27;;;;;;;60.10;41.58;;;;;;;;;;5016396;28;20048;-84
2022/03/24 00:04:56;;;;;;;64.07;40.63;;;;;;;;;;5021791;28;20044;-85
2022/03/24 00:07:28;;;;;;;62.50;40.50;;;;;;;;;;5012679;28;20045;-84
2022/03/24 00:09:54;;;;;;;61.72;43.15;;;;;;;;;;5047741;28;20053;-84
2022/03/24 00:12:22;;;;;;;61.70;42.08;;;;;;;;;;5015704;28;20049;-84
2022/03/24 00:14:51;;;;;;;54.13;39.75;;;;;;;;;;5015504;28;20084;-84
2022/03/24 00:17:17;;;;;;;58.92;40.78;;;;;;;;;;5011212;28;20617;-84
2022/03/24 00:19:43;;;;;;;58.15;41.33;;;;;;;;;;5023367;28;20567;-84
2022/03/24 00:22:10;;;;;;;57.88;41.85;;;;;;;;;;5032043;28;20041;-84
2022/03/24 00:24:42;;;;;;;58.25;40.47;;;;;;;;;;5044139;28;20052;-84
2022/03/24 00:27:09;;;;;;;55.22;39.58;;;;;;;;;;5026863;28;20425;-84
2022/03/24 00:29:38;;;;;;;66.03;41.25;;;;;;;;;;4993696;28;20060;-84
2022/03/24 00:32:05;;;;;;;56.15;40.47;;;;;;;;;;5004339;28;20037;-84
2022/03/24 00:34:40;;;;;;;61.65;40.30;;;;;;;;;;5030036;28;20054;-84
2022/03/24 00:37:08;;;;;;;56.25;38.72;;;;;;;;;;4993548;28;20089;-84
2022/03/24 00:39:34;;;;;;;59.42;40.97;;;;;;;;;;5018443;28;20053;-84
2022/03/24 00:42:11;;;;;;;66.55;43.20;;;;;;;;;;5040928;28;20049;-84
2022/03/24 00:44:37;;;;;;;64.05;42.75;;;;;;;;;;5032980;28;20064;-84
2022/03/24 00:47:07;;;;;;;64.65;42.08;;;;;;;;;;5032258;28;20147;-84
2022/03/24 00:49:33;;;;;;;62.55;43.70;;;;;;;;;;5045300;28;20052;-84
2022/03/24 00:52:02;;;;;;;61.28;40.80;;;;;;;;;;5003822;28;20267;-84
2022/03/24 00:54:28;;;;;;;68.68;43.10;;;;;;;;;;5031711;28;20053;-84
2022/03/24 00:56:57;;;;;;;61.67;41.38;;;12.40;89.80;;;;;;5018962;28;20080;-84
2022/03/24 00:59:25;;;;;;;57.35;41.50;;;7.70;99.90;;;;;;5016969;28;20053;-84
2022/03/24 01:01:53;;;;;;;65.00;42.05;;;7.50;99.90;;;;;;5000222;28;20041;-84
2022/03/24 01:04:20;;;;;;;63.97;41.58;;;;;;;;;;5035053;28;20060;-84
2022/03/24 01:06:49;;;;;;;57.35;40.78;;;;;;;;;;5019785;28;20404;-85
2022/03/24 01:09:21;;;;;;;64.50;43.55;;;;;;;;;;5019666;28;20049;-84
2022/03/24 01:11:51;;;;;;;58.87;40.50;;;;;;;;;;5029379;28;20501;-84
2022/03/24 01:14:18;;;;;;;62.90;44.22;;;;;;;;;;5032861;28;20046;-84
2022/03/24 01:16:44;;;;;;;64.28;44.05;;;;;;;;;;5031717;28;20093;-84
2022/03/24 01:19:10;;;;;;;62.65;41.83;;;;;;;;;;5016347;28;20054;-84
2022/03/24 01:21:38;;;;;;;67.40;43.20;;;;;;;;;;5037209;28;20049;-84
2022/03/24 01:24:06;;;;;;;68.10;43.13;;;;;;;;;;5002733;28;20049;-85
2022/03/24 01:26:32;;;;;;;65.10;43.10;;;;;;;;;;5019181;28;20068;-81
2022/03/24 01:28:59;;;;;;;60.95;43.03;;;;;;;;;;4995886;28;20694;-82
2022/03/24 01:31:28;;;;;;;66.25;44.60;;;;;;;;;;4994857;28;20088;-82
2022/03/24 01:33:58;;;;;;;70.80;45.50;;;;;;;;;;5007157;28;20128;-82
2022/03/24 01:36:25;;;;;;;72.45;44.05;;;;;;;;;;5025079;28;20474;-82
2022/03/24 01:38:51;;;;;;;66.63;46.35;;;;;;;;;;4995665;28;20057;-82
2022/03/24 01:41:18;;;;;;;69.60;46.17;;;;;;;;;;5026778;28;20141;-82
2022/03/24 01:43:45;;;;;;;72.07;47.40;;;;;;;;;;5014945;28;20041;-82
2022/03/24 01:46:12;;;;;;;73.03;45.55;;;;;;;;;;4995970;28;20049;-82
2022/03/24 01:48:38;;;;;;;82.32;47.88;;;;;;;;;;5011955;28;20097;-82
2022/03/24 01:51:05;;;;;;;76.47;51.20;;;;;;;;;;5017514;28;20050;-81
2022/03/24 01:53:34;;;;;;;73.55;45.38;;;;;;;;;;5011273;28;20175;-82
2022/03/24 01:56:03;;;;;;;75.97;47.90;;;;;;;;;;5029902;28;20068;-82
2022/03/24 01:58:31;;;;;;;78.50;49.17;;;;;;;;;;5026714;28;20146;-81
2022/03/24 02:01:13;;;;;;;77.70;48.97;;;;;;;;;;4997195;28;20124;-82
2022/03/24 02:03:40;;;;;;;72.47;47.65;;;;;;;;;;5046484;28;20684;-82
2022/03/24 02:06:06;;;;;;;82.95;51.85;;;;;;;;;;5031361;28;20053;-82
2022/03/24 02:08:34;;;;;;;75.35;49.60;;;;;;;;;;5015160;28;20410;-82
2022/03/24 02:11:01;;;;;;;77.18;49.95;;;;;;;;;;5001433;28;20634;-82
2022/03/24 02:13:27;;;;;;;79.70;50.25;;;;;;;;;;5010790;28;20124;-82
2022/03/24 02:15:53;;;;;;;93.30;53.38;;;;;;;;;;5019902;28;20095;-82
2022/03/24 02:18:19;;;;;;;82.40;52.30;;;;;;;;;;5002082;28;20061;-82
2022/03/24 02:20:50;;;;;;;81.38;50.38;;;;;;;;;;5017872;28;20084;-82
2022/03/24 02:23:17;;;;;;;78.45;49.90;;;;;;;;;;5014608;28;20517;-82
2022/03/24 02:25:43;;;;;;;82.13;51.95;;;;;;;;;;5009107;28;20058;-82
2022/03/24 02:28:10;;;;;;;90.32;53.45;;;;;;;;;;5012920;28;20076;-82
2022/03/24 02:33:40;;;;;;;84.45;52.33;;;;;;;;;;4994576;28;20120;-82
2022/03/24 02:36:07;;;;;;;86.55;52.10;;;;;;;;;;5030763;28;20453;-82
2022/03/24 02:38:33;;;;;;;87.88;53.35;;;;;;;;;;5001726;28;20134;-82
2022/03/24 02:41:02;;;;;;;82.15;49.83;;;;;;;;;;5031810;28;20056;-82
2022/03/24 02:43:30;;;;;;;89.15;53.53;;;;;;;;;;5017898;28;20447;-82
2022/03/24 02:45:57;;;;;;;79.70;51.58;;;;;;;;;;5017774;28;20045;-82
2022/03/24 02:48:23;;;;;;;87.72;52.05;;;;;;;;;;5008195;28;20152;-82
2022/03/24 02:50:53;;;;;;;79.95;54.22;;;;;;;;;;5012291;28;20038;-82
2022/03/24 02:53:19;;;;;;;77.43;49.78;;;;;;;;;;4998230;28;20081;-83
2022/03/24 02:55:48;;;;;;;84.70;51.08;;;;;;;;;;5011721;28;20087;-81
2022/03/24 02:58:14;;;;;;;88.70;52.65;;;;;;;;;;4981678;28;20112;-82
2022/03/24 03:00:46;;;;;;;85.45;53.13;;;;;;;;;;5028825;28;20081;-82
2022/03/24 03:03:13;;;;;;;78.65;49.80;;;;;;;;;;4994298;28;20042;-82
2022/03/24 03:05:40;;;;;;;80.63;52.97;;;;;;;;;;4990949;28;20041;-82
2022/03/24 03:08:07;;;;;;;82.85;50.15;;;;;;;;;;5026150;28;20506;-82
2022/03/24 03:10:34;;;;;;;77.90;48.67;;;;;;;;;;5014255;28;20064;-82
2022/03/24 03:13:01;;;;;;;75.90;51.55;;;;;;;;;;4997674;28;20524;-82
2022/03/24 03:15:27;;;;;;;80.10;48.22;;;;;;;;;;5030253;28;20176;-82
2022/03/24 03:17:54;;;;;;;83.18;50.88;;;;;;;;;;5029803;28;20128;-82
2022/03/24 03:20:20;;;;;;;90.32;53.45;;;;;;;;;;5013320;28;20132;-81
2022/03/24 03:22:50;;;;;;;90.55;56.70;;;;;;;;;;5030044;28;20056;-81
2022/03/24 03:25:16;;;;;;;80.47;52.75;;;;;;;;;;5030281;28;20065;-82
2022/03/24 03:27:43;;;;;;;83.20;53.30;;;;;;;;;;5031373;28;20052;-82
2022/03/24 03:30:09;;;;;;;83.68;49.65;;;;;;;;;;5029784;28;20049;-82
2022/03/24 03:32:36;;;;;;;87.05;51.78;;;;;;;;;;5012988;28;20064;-82
2022/03/24 03:35:02;;;;;;;85.45;52.47;;;;;;;;;;5011537;28;20409;-82
2022/03/24 03:37:30;;;;;;;75.18;48.13;;;;;;;;;;4996038;28;20054;-82
2022/03/24 03:39:59;;;;;;;82.80;51.35;;;;;;;;;;5029534;28;20042;-82
2022/03/24 03:42:31;;;;;;;86.97;51.10;;;;;;;;;;5029585;28;20067;-82
2022/03/24 03:45:04;;;;;;;92.30;52.33;;;;;;;;;;5030974;28;20686;-82
2022/03/24 03:47:30;;;;;;;96.43;54.78;;;;;;;;;;4998754;28;20753;-82
2022/03/24 03:49:59;;;;;;;91.15;53.22;;;;;;;;;;5016837;28;20103;-82
2022/03/24 03:52:26;;;;;;;82.72;50.35;;;;;;;;;;5013208;28;20042;-82
2022/03/24 03:54:58;;;;;;;79.28;51.85;;;;;;;;;;5029838;28;20127;-82
2022/03/24 03:57:24;;;;;;;79.63;51.65;;;;;;;;;;5029953;28;20085;-82
2022/03/24 03:59:50;;;;;;;89.18;55.00;;;7.60;99.90;;;;;;5013482;28;20081;-82
2022/03/24 04:02:16;;;;;;;82.28;49.90;;;6.30;99.90;;;;;;5013161;28;20083;-82
2022/03/24 04:04:45;;;;;;;86.93;53.38;;;6.20;99.90;;;;;;5029445;28;20048;-82
2022/03/24 04:07:18;;;;;;;79.30;51.60;;;6.20;99.90;;;;;;5014280;28;20049;-82
2022/03/24 04:09:45;;;;;;;83.78;49.40;;;6.20;99.90;;;;;;4997166;28;20042;-81
2022/03/24 04:12:11;;;;;;;75.82;50.03;;;6.10;99.90;;;;;;5013456;28;20089;-81
2022/03/24 04:14:39;;;;;;;87.45;51.72;;;6.10;99.90;;;;;;5016991;28;20069;-82
2022/03/24 04:17:05;;;;;;;87.38;49.90;;;6.10;99.90;;;;;;5034315;28;20100;-82
2022/03/24 04:19:32;;;;;;;79.63;51.17;;;6.10;99.90;;;;;;5021479;28;20076;-82
2022/03/24 04:21:58;;;;;;;87.43;52.92;;;6.00;99.90;;;;;;5001823;28;20045;-82
2022/03/24 04:24:23;;;;;;;84.18;49.53;;;6.00;99.90;;;;;;4999804;28;20104;-82
2022/03/24 04:26:58;;;;;;;81.60;48.40;;;5.90;99.90;;;;;;5016898;28;20139;-82
2022/03/24 04:29:25;;;;;;;79.82;48.03;;;;;;;;;;4999012;28;20081;-82
2022/03/24 04:31:51;;;;;;;78.93;51.28;;;5.90;99.90;;;;;;5032549;28;20115;-82
2022/03/24 04:34:22;;;;;;;80.57;50.05;;;5.90;99.90;;;;;;4986479;28;20046;-81
2022/03/24 04:36:48;;;;;;;82.05;50.85;;;5.90;99.90;;;;;;5029479;28;20060;-82
2022/03/24 04:39:15;;;;;;;83.25;49.47;;;;;;;;;;5032406;28;20048;-82
2022/03/24 04:41:42;;;;;;;83.72;50.15;;;;;;;;;;5020083;28;20040;-82
2022/03/24 04:44:11;;;;;;;77.00;46.47;;;;;;;;;;5052670;28;20045;-82
2022/03/24 04:46:40;;;;;;;88.57;50.30;;;;;;;;;;5001962;28;20198;-82
2022/03/24 04:49:09;;;;;;;79.80;51.38;;;;;;;;;;5015817;28;20524;-81
2022/03/24 04:51:35;;;;;;;87.60;51.40;;;;;;;;;;5015986;28;20477;-82
2022/03/24 04:54:01;;;;;;;79.45;48.85;;;;;;;;;;5047357;28;20053;-82
2022/03/24 04:56:32;;;;;;;82.18;51.28;;;;;;;;;;5020602;28;20045;-82
2022/03/24 04:59:01;;;;;;;75.78;47.40;;;;;;;;;;5054325;28;20049;-82
2022/03/24 05:01:28;;;;;;;81.80;49.30;;;5.90;99.90;;;;;;5027509;28;20053;-82
2022/03/24 05:03:54;;;;;;;72.10;46.78;;;5.70;99.90;;;;;;5036355;28;20118;-81
2022/03/24 05:06:23;;;;;;;75.35;48.25;;;5.70;99.90;;;;;;5003028;28;20495;-81
2022/03/24 05:08:50;;;;;;;82.43;49.38;;;5.70;99.90;;;;;;5035112;28;20059;-81
2022/03/24 05:11:16;;;;;;;73.88;47.47;;;5.60;99.90;;;;;;5035550;28;20057;-81
2022/03/24 05:13:42;;;;;;;79.30;46.88;;;5.50;99.90;;;;;;5003199;28;20059;-82
2022/03/24 05:16:14;;;;;;;84.22;48.63;;;5.50;99.90;;;;;;5035445;28;20586;-81
2022/03/24 05:18:40;;;;;;;76.20;46.13;;;5.50;99.90;;;;;;5052210;28;20124;-81
2022/03/24 05:21:05;;;;;;;69.53;45.20;;;5.50;99.90;;;;;;5043566;28;20133;-82
2022/03/24 05:23:31;;;;;;;73.70;46.80;;;5.50;99.90;;;;;;5023813;28;20052;-81
2022/03/24 05:25:58;;;;;;;71.22;44.58;;;5.50;99.90;;;;;;5018318;28;20052;-82
2022/03/24 05:28:25;;;;;;;76.97;45.75;;;;;;;;;;5034500;28;20056;-81
2022/03/24 05:30:54;;;;;;;71.50;46.47;;;;;;;;;;5035656;28;20048;-84
2022/03/24 05:33:20;;;;;;;72.55;43.30;;;;;;;;;;5019903;28;20049;-83
2022/03/24 05:35:49;;;;;;;69.03;43.33;;;;;;;;;;5036484;28;20059;-83
2022/03/24 05:38:15;;;;;;;69.78;44.08;;;;;;;;;;5020050;28;20052;-83
2022/03/24 05:40:42;;;;;;;73.10;43.03;;;;;;;;;;5038226;28;20080;-83
2022/03/24 05:43:08;;;;;;;69.50;45.40;;;;;;;;;;5051167;28;20041;-84
2022/03/24 05:45:37;;;;;;;71.68;45.65;;;;;;;;;;5002978;28;20489;-84
2022/03/24 05:48:06;;;;;;;76.28;44.83;;;;;;;;;;5049290;28;20119;-83
2022/03/24 05:50:32;;;;;;;71.00;45.00;;;;;;;;;;5012153;28;20045;-83
2022/03/24 05:53:02;;;;;;;74.93;45.53;;;;;;;;;;4982665;28;20045;-84
2022/03/24 05:55:29;;;;;;;67.43;40.78;;;;;;;;;;5022054;28;20049;-84
2022/03/24 05:57:57;;;;;;;69.85;44.03;;;;;;;;;;5012038;28;20448;-84
2022/03/24 06:00:24;;;;;;;68.80;43.70;;;;;;;;;;5018833;28;20056;-84
2022/03/24 06:02:50;;;;;;;63.42;40.28;;;;;;;;;;5018659;28;20132;-83
2022/03/24 06:05:20;;;;;;;66.40;41.47;;;;;;;;;;5029020;28;20185;-84
2022/03/24 06:07:47;;;;;;;68.95;42.70;;;;;;;;;;5007493;28;20049;-83
2022/03/24 06:10:13;;;;;;;69.43;40.05;;;;;;;;;;5053394;28;20115;-83
2022/03/24 06:12:40;;;;;;;69.32;42.97;;;;;;;;;;5034784;28;20539;-83
2022/03/24 06:15:07;;;;;;;68.13;40.30;;;;;;;;;;5002248;28;20045;-84
2022/03/24 06:17:33;;;;;;;59.88;40.83;;;;;;;;;;5015525;28;20163;-83
2022/03/24 06:20:01;;;;;;;67.57;42.53;;;;;;;;;;5036474;28;20041;-83
2022/03/24 06:22:28;;;;;;;67.88;39.25;;;;;;;;;;5013492;28;20045;-83
2022/03/24 06:24:54;;;;;;;59.72;38.42;;;;;;;;;;5020395;28;20045;-83
2022/03/24 06:27:21;;;;;;;61.40;41.38;;;;;;;;;;5019895;28;20843;-83
2022/03/24 06:29:48;;;;;;;56.17;39.60;;;;;;;;;;5018139;28;20106;-84
2022/03/24 06:32:15;;;;;;;66.50;42.45;;;;;;;;;;5038839;28;20103;-86
2022/03/24 06:34:41;;;;;;;76.75;45.40;;;;;;;;;;5014681;28;20055;-83
2022/03/24 06:37:08;;;;;;;68.53;41.70;;;;;;;;;;5039104;28;20152;-83
2022/03/24 06:39:40;;;;;;;75.75;44.13;;;;;;;;;;5035657;28;20049;-83
2022/03/24 06:42:06;;;;;;;66.88;41.72;;;;;;;;;;5019388;28;20111;-83
2022/03/24 06:44:35;;;;;;;70.88;43.45;;;;;;;;;;5033823;28;20072;-83
2022/03/24 06:47:05;;;;;;;65.43;42.47;;;;;;;;;;5041808;28;20202;-83
2022/03/24 06:49:31;;;;;;;71.38;41.33;;;;;;;;;;5033289;28;20326;-82
2022/03/24 06:51:58;;;;;;;64.00;41.55;;;;;;;;;;5041826;28;20542;-83
2022/03/24 06:54:24;;;;;;;70.95;41.55;;;;;;;;;;5034275;28;20720;-83
2022/03/24 06:56:50;;;;;;;63.20;39.35;;;;;;;;;;5043622;28;20098;-83
2022/03/24 06:59:17;;;;;;;67.53;43.72;;;;;;;;;;4981172;28;20056;-83
2022/03/24 07:01:43;;;;;;;66.53;40.60;;;;;;;;;;5013661;28;20055;-82
2022/03/24 07:04:10;;;;;;;65.45;39.80;;;;;;;;;;5045873;28;20052;-81
2022/03/24 07:06:37;;;;;;;63.95;40.08;;;;;;;;;;5010437;28;20149;-82
2022/03/24 07:09:05;;;;;;;69.22;43.17;;;;;;;;;;5009958;28;20448;-82
2022/03/24 07:11:32;;;;;;;61.50;39.42;;;;;;;;;;5031879;28;20068;-81
2022/03/24 07:13:58;;;;;;;65.13;42.88;;;;;;;;;;5025125;28;20501;-82
2022/03/24 07:16:25;;;;;;;76.95;46.15;;;;;;;;;;5031227;28;20049;-82
2022/03/24 07:18:51;;;;;;;71.47;43.55;;;;;;;;;;5021835;28;20057;-81
2022/03/24 07:21:19;;;;;;;68.72;43.28;;;;;;;;;;5041872;28;20084;-81
2022/03/24 07:23:45;;;;;;;62.13;42.58;;;;;;;;;;5042601;28;20044;-81
2022/03/24 07:26:11;;;;;;;73.80;41.58;;;;;;;;;;5016464;28;20061;-82
2022/03/24 07:28:37;;;;;;;73.65;44.20;;;;;;;;;;5037262;28;20327;-82
2022/03/24 07:31:15;;;;;;;71.20;45.40;;;;;;;;;;5023553;28;20051;-83
2022/03/24 07:33:42;;;;;;;70.75;44.67;;;;;;;;;;5030187;28;20159;-82
2022/03/24 07:36:11;;;;;;;70.43;45.03;;;;;;;;;;5032194;28;20351;-82
2022/03/24 07:38:37;;;;;;;73.43;46.65;;;;;;;;;;5025223;28;20053;-82
2022/03/24 07:41:03;;;;;;;80.45;50.08;;;;;;;;;;5031694;28;20087;-82
2022/03/24 07:43:29;;;;;;;75.30;49.28;;;;;;;;;;5017867;28;20052;-82
2022/03/24 07:45:55;;;;;;;67.47;46.08;;;;;;;;;;4999183;28;20052;-82
2022/03/24 07:48:25;;;;;;;79.97;51.08;;;;;;;;;;5021664;28;20676;-83
2022/03/24 07:50:52;;;;;;;89.68;55.13;;;;;;;;;;5035023;28;20106;-84
2022/03/24 07:53:19;;;;;;;87.13;53.78;;;;;;;;;;5024816;28;20067;-84
2022/03/24 07:55:46;;;;;;;90.15;52.97;;;;;;;;;;5023271;28;20068;-83
2022/03/24 07:58:12;;;;;;;93.32;52.95;;;;;;;;;;5032639;28;20092;-83
2022/03/24 08:00:39;;;;;;;89.03;56.03;;;;;;;;;;5016341;28;20296;-83
2022/03/24 08:03:12;;;;;;;86.45;54.10;;;;;;;;;;5039144;28;20049;-83
2022/03/24 08:05:38;;;;;;;92.32;58.63;;;;;;;;;;5038797;28;20091;-83
2022/03/24 08:08:05;;;;;;;86.97;54.97;;;;;;;;;;5019000;28;20056;-83
2022/03/24 08:10:31;;;;;;;84.63;53.05;;;;;;;;;;5041446;28;20288;-84
2022/03/24 08:12:57;;;;;;;94.60;54.38;;;;;;;;;;5021119;28;20053;-83
2022/03/24 08:15:24;;;;;;;89.65;53.20;;;;;;;;;;5041611;28;20049;-83
2022/03/24 08:17:50;;;;;;;83.38;51.85;;;;;;;;;;5018503;28;20088;-83
2022/03/24 08:20:16;;;;;;;76.95;50.20;;;;;;;;;;5016905;28;20060;-83
2022/03/24 08:22:43;;;;;;;85.88;53.83;;;;;;;;;;5020191;28;20048;-83
2022/03/24 08:25:10;;;;;;;84.78;50.03;;;;;;;;;;5039726;28;20374;-83
2022/03/24 08:27:36;;;;;;;85.50;52.92;;;;;;;;;;5033005;28;20044;-83
2022/03/24 08:30:06;;;;;;;73.95;49.55;;;;;;;;;;5050045;28;20041;-83
2022/03/24 08:32:33;;;;;;;72.95;47.45;;;;;;;;;;5026033;28;20041;-83
2022/03/24 08:35:00;;;;;;;83.30;52.40;;;;;;;;;;5040938;28;20103;-84
2022/03/24 08:37:26;;;;;;;76.47;48.55;;;;;;;;;;5031133;28;21384;-83
2022/03/24 08:39:52;;;;;;;77.35;50.08;;;;;;;;;;5021142;28;20045;-84
2022/03/24 08:42:18;;;;;;;78.57;49.28;;;;;;;;;;5018180;28;20053;-84
2022/03/24 08:44:50;;;;;;;74.00;45.80;;;;;;;;;;5003336;28;20504;-84
2022/03/24 08:47:19;;;;;;;67.38;44.20;;;;;;;;;;5034781;28;20060;-84
2022/03/24 08:49:45;;;;;;;75.05;45.97;;;;;;;;;;5021634;28;20060;-84
2022/03/24 08:52:12;;;;;;;68.10;47.30;;;;;;;;;;5025694;28;20082;-83
2022/03/24 08:54:38;;;;;;;75.32;47.85;;;;;;;;;;5009149;28;20071;-83
2022/03/24 08:57:04;;;;;;;68.90;44.58;;;;;;;;;;5018248;28;20563;-84
2022/03/24 08:59:31;;;;;;;77.30;48.88;;;;;;;;;;5032343;28;20469;-84
2022/03/24 09:02:00;;;;;;;75.32;46.67;;;;;;;;;;5021530;28;20342;-84
2022/03/24 09:04:27;;;;;;;69.43;44.30;;;;;;;;;;4984350;28;20380;-83
2022/03/24 09:06:53;;;;;;;70.60;44.88;;;;;;;;;;5021047;28;20462;-83
2022/03/24 09:09:22;;;;;;;73.18;44.85;;;;;;;;;;5040189;28;20047;-84
2022/03/24 09:11:49;;;;;;;65.47;43.45;;;;;;;;;;5033050;28;20052;-84
2022/03/24 09:14:16;;;;;;;69.15;46.20;;;;;;;;;;5000538;28;20295;-83
2022/03/24 09:16:42;;;;;;;66.45;43.67;;;;;;;;;;5026614;28;20076;-83
2022/03/24 09:19:08;;;;;;;58.58;41.28;;;;;;;;;;5012094;28;20050;-83
2022/03/24 09:21:37;;;;;;;59.38;40.05;;;;;;;;;;5005322;28;20051;-84
2022/03/24 09:24:04;;;;;;;54.90;38.35;;;;;;;;;;4994114;28;20116;-84
2022/03/24 09:26:30;;;;;;;81.35;42.13;;;;;;;;;;5012021;28;20505;-84
2022/03/24 09:28:56;;;;;;;57.88;39.30;;;;;;;;;;5026887;28;20061;-84
2022/03/24 09:31:25;;;;;;;55.17;39.55;;;;;;;;;;5045887;28;20049;-84
2022/03/24 09:33:51;;;;;;;65.60;38.95;;;;;;;;;;5038345;28;20059;-84
2022/03/24 09:36:17;;;;;;;63.80;40.55;;;5.40;99.90;;;;;;5005799;28;20046;-84
2022/03/24 09:38:44;;;;;;;60.35;40.35;;;;;;;;;;5024615;28;20133;-84
2022/03/24 09:41:10;;;;;;;56.10;35.92;;;;;;;;;;5010526;28;20053;-84
2022/03/24 09:43:41;;;;;;;55.40;37.97;;;;;;;;;;5028949;28;20056;-84
2022/03/24 09:46:08;;;;;;;54.88;38.35;;;;;;;;;;5028617;28;20049;-84
2022/03/24 09:48:34;;;;;;;58.40;38.63;;;;;;;;;;5005040;28;20133;-84
2022/03/24 09:51:00;;;;;;;60.85;36.92;;;;;;;;;;5040200;28;20049;-84
2022/03/24 09:53:26;;;;;;;55.35;36.80;;;;;;;;;;5012433;28;20056;-84
2022/03/24 09:55:56;;;;;;;56.60;39.03;;;;;;;;;;5027367;28;20148;-84
2022/03/24 09:58:28;;;;;;;53.92;36.75;;;;;;;;;;5010685;28;20042;-84
2022/03/24 10:00:54;;;;;;;53.63;34.47;;;;;;;;;;5016768;28;20409;-84
2022/03/24 10:03:22;;;;;;;51.78;35.08;;;;;;;;;;5009203;28;20073;-84
2022/03/24 10:05:58;;;;;;;51.45;34.20;;;;;;;;;;5028585;28;20053;-84
2022/03/24 10:08:25;;;;;;;51.70;32.42;;;;;;;;;;5027921;28;20049;-84
2022/03/24 10:11:02;;;;;;;52.60;34.03;;;11.30;99.90;;;;;;4995675;28;20402;-84
2022/03/24 10:13:45;;;;;;;50.05;34.22;;;;;;;;;;5028073;28;20052;-84
2022/03/24 10:16:34;;;;;;;55.07;33.70;;;;;;;;;;5020408;28;20112;-84
2022/03/24 10:19:01;;;;;;;45.13;31.17;;;;;;;;;;5014364;28;20115;-84
2022/03/24 10:21:48;;;;;;;48.97;33.92;;;;;;;;;;5037977;28;20412;-84
2022/03/24 10:24:15;;;;;;;51.08;33.40;;;;;;;;;;4999278;28;20125;-84
2022/03/24 10:26:59;;;;;;;52.20;35.85;;;;;;;;;;5025220;28;20104;-84
2022/03/24 10:29:25;;;;;;;49.08;33.35;;;;;;;;;;5027017;28;20045;-84
2022/03/24 10:31:58;;;;;;;47.97;31.90;;;;;;;;;;5011591;28;20439;-84
2022/03/24 10:34:32;;;;;;;43.03;32.10;;;;;;;;;;5033578;28;20567;-84
2022/03/24 10:37:03;;;;;;;45.83;30.63;;;;;;;;;;5024928;28;20136;-84
2022/03/24 10:39:29;;;;;;;42.38;29.88;;;;;;;;;;5015054;28;20141;-84
2022/03/24 10:42:10;;;;;;;48.03;34.40;;;;;;;;;;5043847;28;20069;-84
2022/03/24 10:44:36;;;;;;;52.20;33.45;;;;;;;;;;5003907;28;20073;-84
2022/03/24 10:47:06;;;;;;;46.45;34.05;;;;;;;;;;5029517;28;20045;-84
2022/03/24 10:49:32;;;;;;;43.70;31.02;;;;;;;;;;4970214;28;20060;-84
2022/03/24 10:52:00;;;;;;;52.85;34.33;;;;;;;;;;5027745;28;20053;-84
2022/03/24 10:54:33;;;;;;;58.28;36.50;;;;;;;;;;5026997;28;20084;-84
2022/03/24 10:57:05;;;;;;;50.92;34.08;;;;;;;;;;5028766;28;20050;-84
2022/03/24 10:59:33;;;;;;;52.70;35.78;;;;;;;;;;5018979;28;20282;-84
2022/03/24 11:02:09;;;;;;;46.22;33.53;;;;;;;;;;5028270;28;20107;-84
2022/03/24 11:04:36;;;;;;;52.10;35.63;;;;;;;;;;4995844;28;20080;-84
2022/03/24 11:07:02;;;;;;;46.22;34.33;;;;;;;;;;5006832;28;20049;-84
2022/03/24 11:09:29;;;;;;;44.05;31.52;;;;;;;;;;5025458;28;20124;-84
2022/03/24 11:12:14;;;;;;;46.22;31.42;;;;;;;;;;5027530;28;20513;-84
2022/03/24 11:14:41;;;;;;;50.63;33.85;;;;;;;;;;5028437;28;20064;-84
2022/03/24 11:17:08;;;;;;;51.67;33.70;;;;;;;;;;5032025;28;20057;-84
2022/03/24 11:19:34;;;;;;;52.58;33.33;;;;;;;;;;5027255;28;20045;-84
2022/03/24 11:22:03;;;;;;;48.40;32.80;;;;;;;;;;5005923;28;20441;-84
2022/03/24 11:24:29;;;;;;;50.47;35.15;;;;;;;;;;5017688;28;20049;-84
2022/03/24 11:26:55;;;;;;;45.38;33.58;;;;;;;;;;4994210;28;20367;-84
2022/03/24 11:29:22;;;;;;;52.20;33.70;;;;;;;;;;5010345;28;20528;-84
2022/03/24 11:31:48;;;;;;;45.05;33.13;;;;;;;;;;5023950;28;20053;-84
2022/03/24 11:34:15;;;;;;;51.70;35.65;;;;;;;;;;5017170;28;20513;-84
2022/03/24 11:36:42;;;;;;;51.40;35.47;;;;;;;;;;4996919;28;20128;-84
2022/03/24 11:39:09;;;;;;;57.63;34.95;;;;;;;;;;5022102;28;20060;-84
2022/03/24 11:41:41;;;;;;;44.22;33.83;;;;;;;;;;5003487;28;20387;-84
2022/03/24 11:44:27;;;;;;;59.22;33.63;;;;;;;;;;5012005;28;20049;-81
2022/03/24 11:46:55;;;;;;;46.15;30.90;;;;;;;;;;5006984;28;20060;-80
2022/03/24 11:49:25;;;;;;;46.40;32.70;;;;;;;;;;5005605;28;20053;-80
2022/03/24 11:52:11;;;;;;;43.10;32.47;;;;;;;;;;4989122;28;20069;-80
2022/03/24 11:54:38;;;;;;;45.97;32.50;;;;;;;;;;5000290;28;20120;-80
2022/03/24 11:57:23;;;;;;;46.70;30.35;;;;;;;;;;5005882;28;20116;-80
2022/03/24 11:59:50;;;;;;;44.65;31.42;;;;;;;;;;5020533;28;20119;-84
2022/03/24 12:02:18;;;;;;;44.85;29.58;;;;;;;;;;5003199;28;20134;-84
2022/03/24 12:04:57;;;;;;;41.60;27.63;;;;;;;;;;5007046;28;20046;-85
2022/03/24 12:07:24;;;;;;;38.25;27.58;;;;;;;;;;5029365;28;20049;-85
2022/03/24 12:09:55;;;;;;;41.17;28.23;;;;;;;;;;5013637;28;20061;-85
2022/03/24 12:12:27;;;;;;;39.28;26.35;;;;;;;;;;5024943;28;20060;-85
2022/03/24 12:14:59;;;;;;;45.35;26.55;;;;;;;;;;5005263;28;20100;-85
2022/03/24 12:17:30;;;;;;;40.83;26.03;;;;;;;;;;5015544;28;20049;-85
2022/03/24 12:19:57;;;;;;;38.38;24.23;;;;;;;;;;5010272;28;20049;-85
2022/03/24 12:22:26;;;;;;;38.25;27.10;;;;;;;;;;5012911;28;20125;-85
2022/03/24 12:25:02;;;;;;;35.33;24.95;;;;;;;;;;5023165;28;20053;-85
2022/03/24 12:27:28;;;;;;;41.92;26.33;;;;;;;;;;5015914;28;20083;-85
2022/03/24 12:30:13;;;;;;;37.30;24.55;;;;;;;;;;5046465;28;20084;-85
2022/03/24 12:32:39;;;;;;;36.53;23.98;;;;;;;;;;5024973;28;20089;-85
2022/03/24 12:35:06;;;;;;;40.08;26.30;;;;;;;;;;5024539;28;20181;-85
2022/03/24 12:37:32;;;;;;;38.03;27.02;;;;;;;;;;5030996;28;20501;-85
2022/03/24 12:40:09;;;;;;;33.78;23.95;;;;;;;;;;5044938;28;20052;-85
2022/03/24 12:42:41;;;;;;;32.42;23.27;;;;;;;;;;5032576;28;20044;-85
2022/03/24 12:45:08;;;;;;;34.45;24.48;;;;;;;;;;5045482;28;20067;-85
2022/03/24 12:47:39;;;;;;;34.92;24.45;;;;;;;;;;5038849;28;20143;-85
2022/03/24 12:50:17;;;;;;;36.30;23.75;;;;;;;;;;5033267;28;20571;-85
2022/03/24 12:52:59;;;;;;;42.67;26.05;;;;;;;;;;5023975;28;20048;-85
2022/03/24 12:55:33;;;;;;;44.27;28.77;;;;;;;;;;5001923;28;20075;-86
2022/03/24 12:58:02;;;;;;;43.13;26.80;;;;;;;;;;5017150;28;20754;-86
2022/03/24 13:00:30;;;;;;;44.28;28.13;;;;;;;;;;5040353;28;20069;-86
2022/03/24 13:02:57;;;;;;;37.95;27.02;;;;;;;;;;5002317;28;20044;-86
2022/03/24 13:05:27;;;;;;;41.92;26.50;;;;;;;;;;5049739;28;20398;-85
2022/03/24 13:07:54;;;;;;;46.45;30.00;;;;;;;;;;5043965;28;20045;-86
2022/03/24 13:10:24;;;;;;;41.50;30.40;;;;;;;;;;5040036;28;20076;-86
2022/03/24 13:12:51;;;;;;;44.75;29.70;;;;;;;;;;5008042;28;20048;-86
2022/03/24 13:15:21;;;;;;;42.47;28.83;;;;;;;;;;5025676;28;20045;-86
2022/03/24 13:17:48;;;;;;;39.08;25.80;;;;;;;;;;5018956;28;20053;-86
2022/03/24 13:20:15;;;;;;;40.42;26.88;;;;;;;;;;5031819;28;20044;-86
2022/03/24 13:22:41;;;;;;;40.72;25.85;;;;;;;;;;5025561;28;20049;-86
2022/03/24 13:25:10;;;;;;;45.47;26.60;;;;;;;;;;5021913;28;20504;-86
2022/03/24 13:27:41;;;;;;;43.13;29.48;;;;;;;;;;5028908;28;20424;-83
2022/03/24 13:30:08;;;;;;;43.38;31.13;;;;;;;;;;5029580;28;20397;-88
2022/03/24 13:32:35;;;;;;;44.25;28.48;;;;;;;;;;5018059;28;20398;-86
2022/03/24 13:35:06;;;;;;;41.42;28.45;;;;;;;;;;5038998;28;20511;-86
2022/03/24 13:37:34;;;;;;;43.15;26.80;;;;;;;;;;5014376;28;20149;-86
2022/03/24 13:40:00;;;;;;;38.95;26.02;;;;;;;;;;5025398;28;20408;-86
2022/03/24 13:42:27;;;;;;;36.55;25.00;;;;;;;;;;5044597;28;20057;-85
2022/03/24 13:44:55;;;;;;;33.95;24.02;;;;;;;;;;5027907;28;20420;-85
2022/03/24 13:47:23;;;;;;;45.15;25.83;;;;;;;;;;4995832;28;20041;-85
2022/03/24 13:49:57;;;;;;;39.78;23.15;;;;;;;;;;5021923;28;20374;-86
2022/03/24 13:52:30;;;;;;;37.80;22.42;;;;;;;;;;5022717;28;20135;-86
2022/03/24 13:55:02;;;;;;;35.75;24.02;;;;;;;;;;5028091;28;20054;-86
2022/03/24 13:57:28;;;;;;;42.28;26.92;;;;;;;;;;5020908;28;20060;-86
2022/03/24 13:59:54;;;;;;;55.60;30.50;;;;;;;;;;4997825;28;20045;-86
2022/03/24 14:02:25;;;;;;;38.97;28.30;;;;;;;;;;5010984;28;20422;-86
2022/03/24 14:05:04;;;;;;;40.08;26.17;;;;;;;;;;4996724;28;20366;-86
2022/03/24 14:07:32;;;;;;;36.40;25.13;;;;;;;;;;5006258;28;20133;-85
2022/03/24 14:09:59;;;;;;;39.90;24.60;;;;;;;;;;5027544;28;20100;-86
2022/03/24 14:12:27;;;;;;;37.88;28.13;;;;;;;;;;5021587;28;20041;-85
2022/03/24 14:14:53;;;;;;;43.30;29.00;;;;;;;;;;4996752;28;20516;-87